Strona główna
METAR-TAF:

METAR-TAF

Lotnisko :

Thule, Grenlandia

Szerokość geograficzna: 76-32N, Długość geograficzna: 068-42W, wysokość: 77 m

Aktualna obserwacja pogody

Raport powstał 55 minut temu, godzina 14:56 UTC
Wiatr 10 kt od wschodnio-południowy wschód
Temperatura -28°C
Wilgotność 75%
Ciśnienie 1008 hPa
Widzialność 10 km lub więcej
bezchmurnie

METAR: BGTL 141456Z AUTO 12010KT 9999 CLR M28/M31 A2976 RMK AO2 SLP071 T12811314 52009 TSNO CHINO RWY26 $

czas: 11:51 (15:51 UTC)

Prognoza

Raport powstał 5 godziny i 51 minut temu, godzina 10:00 UTC
Prognoza ważna od 14 godzina 10 UTC do 15 godzina 16 UTC
Wiatr 12 kt od wschodnio-południowy wschód, zmienny między wschód i południe
Widzialność: 1412 m
bezchmurnie

TAF: BGTL 141000Z 1410/1516 12012KT 9999 SKC QNH2969INS WND 090V190 TXM26/1410Z TNM30/1500Z LAST NO AMDS AFT 1410 NEXT 1412

Obserwacja i prognoza pogody dla ponad 4000 lotnisk (raport METAR i TAF).

Dostępne stacje oznaczono żółtymi i czerwonymi punktami na mapie.

Najedź kursorem aby zobaczyć nazwę stacji.

Kliknij aby zobaczyć obserwacje i prognozy pogody.

Aby zmienić mapę: kliknij na zielony przycisk z czarnym krzyżykiem, aby powiększyć; na zielony przycisk z myślnikiem, aby pomniejszyć; na zielone strzałki, aby przejść do map sąsiednich.


METAR-TAF: